sensor_id;sensor_type;location;lat;lon;timestamp;pressure;altitude;pressure_sealevel;temperature;humidity
41222;BME280;26952;42.884;23.918;2023-04-30T00:00:29;95529.75;;;8.38;100.00
41222;BME280;26952;42.884;23.918;2023-04-30T00:02:54;95540.59;;;8.43;100.00
41222;BME280;26952;42.884;23.918;2023-04-30T00:05:20;95551.50;;;8.40;100.00
41222;BME280;26952;42.884;23.918;2023-04-30T00:07:45;95539.50;;;8.29;100.00
41222;BME280;26952;42.884;23.918;2023-04-30T00:10:10;95535.69;;;8.32;100.00
41222;BME280;26952;42.884;23.918;2023-04-30T00:12:36;95528.09;;;8.21;100.00
41222;BME280;26952;42.884;23.918;2023-04-30T00:15:02;95518.88;;;8.17;100.00
41222;BME280;26952;42.884;23.918;2023-04-30T00:17:28;95544.06;;;8.19;100.00
41222;BME280;26952;42.884;23.918;2023-04-30T00:19:54;95522.50;;;8.08;100.00
41222;BME280;26952;42.884;23.918;2023-04-30T00:22:19;95531.06;;;8.18;100.00
41222;BME280;26952;42.884;23.918;2023-04-30T00:24:44;95527.44;;;8.19;100.00
41222;BME280;26952;42.884;23.918;2023-04-30T00:27:10;95518.38;;;8.05;100.00
41222;BME280;26952;42.884;23.918;2023-04-30T00:29:35;95540.44;;;8.20;100.00
41222;BME280;26952;42.884;23.918;2023-04-30T00:32:02;95537.47;;;8.15;100.00
41222;BME280;26952;42.884;23.918;2023-04-30T00:34:27;95545.91;;;8.27;100.00
41222;BME280;26952;42.884;23.918;2023-04-30T00:36:52;95532.06;;;8.17;100.00
41222;BME280;26952;42.884;23.918;2023-04-30T00:39:18;95534.19;;;8.13;100.00
41222;BME280;26952;42.884;23.918;2023-04-30T00:41:43;95506.84;;;7.90;100.00
41222;BME280;26952;42.884;23.918;2023-04-30T00:44:08;95528.75;;;7.91;100.00
41222;BME280;26952;42.884;23.918;2023-04-30T00:46:34;95541.09;;;7.90;100.00
41222;BME280;26952;42.884;23.918;2023-04-30T00:48:59;95535.66;;;7.92;100.00
41222;BME280;26952;42.884;23.918;2023-04-30T00:51:29;95528.94;;;7.89;100.00
41222;BME280;26952;42.884;23.918;2023-04-30T00:53:56;95537.31;;;7.85;100.00
41222;BME280;26952;42.884;23.918;2023-04-30T00:56:22;95496.13;;;7.44;100.00
41222;BME280;26952;42.884;23.918;2023-04-30T00:58:48;95548.84;;;7.76;100.00
41222;BME280;26952;42.884;23.918;2023-04-30T01:01:18;95544.22;;;7.70;100.00
41222;BME280;26952;42.884;23.918;2023-04-30T01:03:44;95541.94;;;7.75;100.00
41222;BME280;26952;42.884;23.918;2023-04-30T01:06:10;95549.97;;;7.73;100.00
41222;BME280;26952;42.884;23.918;2023-04-30T01:08:35;95549.00;;;7.82;100.00
41222;BME280;26952;42.884;23.918;2023-04-30T01:13:38;95543.22;;;7.63;100.00
41222;BME280;26952;42.884;23.918;2023-04-30T01:16:15;95541.88;;;7.59;100.00
41222;BME280;26952;42.884;23.918;2023-04-30T01:18:48;95513.56;;;7.45;100.00
41222;BME280;26952;42.884;23.918;2023-04-30T01:21:17;95535.97;;;7.65;100.00
41222;BME280;26952;42.884;23.918;2023-04-30T01:24:11;95559.38;;;7.76;100.00
41222;BME280;26952;42.884;23.918;2023-04-30T01:27:22;95549.16;;;7.73;100.00
41222;BME280;26952;42.884;23.918;2023-04-30T01:29:49;95534.00;;;7.67;100.00
41222;BME280;26952;42.884;23.918;2023-04-30T01:32:16;95520.50;;;7.62;100.00
41222;BME280;26952;42.884;23.918;2023-04-30T01:34:42;95524.94;;;7.61;100.00
41222;BME280;26952;42.884;23.918;2023-04-30T01:37:18;95538.13;;;7.69;100.00
41222;BME280;26952;42.884;23.918;2023-04-30T01:40:11;95542.22;;;7.72;100.00
41222;BME280;26952;42.884;23.918;2023-04-30T01:42:56;95544.84;;;7.64;100.00
41222;BME280;26952;42.884;23.918;2023-04-30T01:47:56;95544.56;;;7.75;100.00
41222;BME280;26952;42.884;23.918;2023-04-30T01:53:26;95539.91;;;7.61;100.00
41222;BME280;26952;42.884;23.918;2023-04-30T01:56:02;95530.03;;;7.55;100.00
41222;BME280;26952;42.884;23.918;2023-04-30T01:58:28;95510.22;;;7.35;100.00
41222;BME280;26952;42.884;23.918;2023-04-30T02:00:54;95514.19;;;7.31;100.00
41222;BME280;26952;42.884;23.918;2023-04-30T02:03:20;95525.88;;;7.36;100.00
41222;BME280;26952;42.884;23.918;2023-04-30T02:05:46;95530.34;;;7.44;100.00
41222;BME280;26952;42.884;23.918;2023-04-30T02:08:11;95519.81;;;7.36;100.00
41222;BME280;26952;42.884;23.918;2023-04-30T02:10:37;95544.16;;;7.46;100.00
41222;BME280;26952;42.884;23.918;2023-04-30T02:13:02;95517.78;;;7.30;100.00
41222;BME280;26952;42.884;23.918;2023-04-30T02:15:28;95536.25;;;7.46;100.00
41222;BME280;26952;42.884;23.918;2023-04-30T02:17:53;95522.25;;;7.29;100.00
41222;BME280;26952;42.884;23.918;2023-04-30T02:20:18;95525.69;;;7.30;100.00
41222;BME280;26952;42.884;23.918;2023-04-30T02:22:44;95498.00;;;7.10;100.00
41222;BME280;26952;42.884;23.918;2023-04-30T02:25:09;95500.28;;;7.04;100.00
41222;BME280;26952;42.884;23.918;2023-04-30T02:27:37;95497.97;;;6.93;100.00
41222;BME280;26952;42.884;23.918;2023-04-30T02:30:03;95532.91;;;7.12;100.00
41222;BME280;26952;42.884;23.918;2023-04-30T02:32:29;95521.50;;;7.03;100.00
41222;BME280;26952;42.884;23.918;2023-04-30T02:34:54;95514.25;;;6.97;100.00
41222;BME280;26952;42.884;23.918;2023-04-30T02:37:20;95518.88;;;7.03;100.00
41222;BME280;26952;42.884;23.918;2023-04-30T02:39:45;95527.81;;;7.18;100.00
41222;BME280;26952;42.884;23.918;2023-04-30T02:42:11;95533.38;;;7.15;100.00
41222;BME280;26952;42.884;23.918;2023-04-30T02:44:36;95506.84;;;7.00;100.00
41222;BME280;26952;42.884;23.918;2023-04-30T02:47:02;95537.13;;;7.04;100.00
41222;BME280;26952;42.884;23.918;2023-04-30T02:49:28;95532.19;;;7.01;100.00
41222;BME280;26952;42.884;23.918;2023-04-30T02:51:54;95449.47;;;6.54;100.00
41222;BME280;26952;42.884;23.918;2023-04-30T02:54:19;95526.50;;;6.80;100.00
41222;BME280;26952;42.884;23.918;2023-04-30T02:56:45;95457.44;;;6.37;100.00
41222;BME280;26952;42.884;23.918;2023-04-30T02:59:11;95521.84;;;6.74;100.00
41222;BME280;26952;42.884;23.918;2023-04-30T03:01:36;95525.97;;;6.69;100.00
41222;BME280;26952;42.884;23.918;2023-04-30T03:04:02;95539.66;;;6.80;100.00
41222;BME280;26952;42.884;23.918;2023-04-30T03:06:29;95546.25;;;6.84;100.00
41222;BME280;26952;42.884;23.918;2023-04-30T03:08:55;95543.97;;;6.89;100.00
41222;BME280;26952;42.884;23.918;2023-04-30T03:11:21;95532.25;;;6.76;100.00
41222;BME280;26952;42.884;23.918;2023-04-30T03:13:46;95530.59;;;6.75;100.00
41222;BME280;26952;42.884;23.918;2023-04-30T03:16:15;95540.19;;;6.84;100.00
41222;BME280;26952;42.884;23.918;2023-04-30T03:18:41;95531.81;;;6.88;100.00
41222;BME280;26952;42.884;23.918;2023-04-30T03:21:06;95534.28;;;6.90;100.00
41222;BME280;26952;42.884;23.918;2023-04-30T03:23:31;95562.44;;;7.05;100.00
41222;BME280;26952;42.884;23.918;2023-04-30T03:25:57;95538.38;;;6.92;100.00
41222;BME280;26952;42.884;23.918;2023-04-30T03:28:22;95549.09;;;6.99;100.00
41222;BME280;26952;42.884;23.918;2023-04-30T03:30:47;95543.59;;;6.84;100.00
41222;BME280;26952;42.884;23.918;2023-04-30T03:33:13;95562.09;;;7.00;100.00
41222;BME280;26952;42.884;23.918;2023-04-30T03:35:38;95549.75;;;6.93;100.00
41222;BME280;26952;42.884;23.918;2023-04-30T03:38:03;95551.03;;;6.89;100.00
41222;BME280;26952;42.884;23.918;2023-04-30T03:40:29;95574.59;;;6.98;100.00
41222;BME280;26952;42.884;23.918;2023-04-30T03:42:54;95518.44;;;6.74;100.00
41222;BME280;26952;42.884;23.918;2023-04-30T03:45:20;95580.56;;;7.08;100.00
41222;BME280;26952;42.884;23.918;2023-04-30T03:47:45;95562.94;;;7.01;100.00
41222;BME280;26952;42.884;23.918;2023-04-30T03:50:12;95557.75;;;7.83;100.00
41222;BME280;26952;42.884;23.918;2023-04-30T03:52:38;95550.22;;;9.37;100.00
41222;BME280;26952;42.884;23.918;2023-04-30T03:55:04;95589.63;;;11.05;100.00
41222;BME280;26952;42.884;23.918;2023-04-30T03:57:30;95583.00;;;12.09;90.89
41222;BME280;26952;42.884;23.918;2023-04-30T03:59:55;95566.25;;;13.00;81.66
41222;BME280;26952;42.884;23.918;2023-04-30T04:02:21;95568.53;;;14.44;74.46
41222;BME280;26952;42.884;23.918;2023-04-30T04:04:47;95564.38;;;15.53;64.30
41222;BME280;26952;42.884;23.918;2023-04-30T04:07:13;95565.59;;;16.45;59.42
41222;BME280;26952;42.884;23.918;2023-04-30T04:09:39;95587.00;;;16.94;56.78
41222;BME280;26952;42.884;23.918;2023-04-30T04:12:05;95544.34;;;17.66;53.83
41222;BME280;26952;42.884;23.918;2023-04-30T04:14:30;95568.50;;;18.44;51.07
41222;BME280;26952;42.884;23.918;2023-04-30T04:16:56;95567.03;;;19.12;49.19
41222;BME280;26952;42.884;23.918;2023-04-30T04:19:22;95554.69;;;19.11;49.03
41222;BME280;26952;42.884;23.918;2023-04-30T04:21:47;95554.81;;;19.51;47.58
41222;BME280;26952;42.884;23.918;2023-04-30T04:24:13;95567.44;;;20.24;45.96
41222;BME280;26952;42.884;23.918;2023-04-30T04:26:38;95545.91;;;20.52;44.77
41222;BME280;26952;42.884;23.918;2023-04-30T04:29:04;95572.00;;;20.97;44.36
41222;BME280;26952;42.884;23.918;2023-04-30T04:31:30;95552.03;;;21.26;43.51
41222;BME280;26952;42.884;23.918;2023-04-30T04:33:59;95578.44;;;21.29;43.54
41222;BME280;26952;42.884;23.918;2023-04-30T04:36:28;95584.31;;;20.64;44.73
41222;BME280;26952;42.884;23.918;2023-04-30T04:38:55;95571.59;;;19.81;45.73
41222;BME280;26952;42.884;23.918;2023-04-30T04:41:32;95565.38;;;18.88;47.82
41222;BME280;26952;42.884;23.918;2023-04-30T04:43:58;95517.81;;;17.94;49.70
41222;BME280;26952;42.884;23.918;2023-04-30T04:46:24;95558.41;;;17.19;51.02
41222;BME280;26952;42.884;23.918;2023-04-30T04:48:53;95575.59;;;16.12;55.00
41222;BME280;26952;42.884;23.918;2023-04-30T04:51:18;95552.06;;;15.32;58.76
41222;BME280;26952;42.884;23.918;2023-04-30T04:53:44;95552.50;;;15.16;62.16
41222;BME280;26952;42.884;23.918;2023-04-30T04:56:09;95563.56;;;15.19;63.16
41222;BME280;26952;42.884;23.918;2023-04-30T04:58:35;95583.25;;;15.32;64.71
41222;BME280;26952;42.884;23.918;2023-04-30T05:01:00;95575.06;;;15.20;64.71
41222;BME280;26952;42.884;23.918;2023-04-30T05:03:27;95556.22;;;15.08;63.22
41222;BME280;26952;42.884;23.918;2023-04-30T05:05:52;95574.66;;;15.23;63.53
41222;BME280;26952;42.884;23.918;2023-04-30T05:08:18;95587.78;;;15.05;65.48
41222;BME280;26952;42.884;23.918;2023-04-30T05:10:43;95586.59;;;14.81;68.46
41222;BME280;26952;42.884;23.918;2023-04-30T05:13:09;95563.59;;;14.87;69.14
41222;BME280;26952;42.884;23.918;2023-04-30T05:15:34;95573.84;;;15.09;70.75
41222;BME280;26952;42.884;23.918;2023-04-30T05:17:59;95578.13;;;15.37;69.31
41222;BME280;26952;42.884;23.918;2023-04-30T05:20:25;95589.78;;;15.55;69.03
41222;BME280;26952;42.884;23.918;2023-04-30T05:22:51;95532.44;;;14.94;67.88
41222;BME280;26952;42.884;23.918;2023-04-30T05:25:16;95583.72;;;15.02;69.21
41222;BME280;26952;42.884;23.918;2023-04-30T05:27:41;95598.03;;;15.41;71.27
41222;BME280;26952;42.884;23.918;2023-04-30T05:30:07;95582.44;;;15.44;69.93
41222;BME280;26952;42.884;23.918;2023-04-30T05:32:33;95593.47;;;15.61;69.57
41222;BME280;26952;42.884;23.918;2023-04-30T05:34:59;95586.94;;;15.30;69.72
41222;BME280;26952;42.884;23.918;2023-04-30T05:37:24;95575.38;;;14.06;77.96
41222;BME280;26952;42.884;23.918;2023-04-30T05:39:50;95585.47;;;13.70;81.56
41222;BME280;26952;42.884;23.918;2023-04-30T05:42:18;95571.78;;;13.73;82.75
41222;BME280;26952;42.884;23.918;2023-04-30T05:44:43;95595.38;;;13.89;82.36
41222;BME280;26952;42.884;23.918;2023-04-30T05:47:08;95584.41;;;14.18;77.58
41222;BME280;26952;42.884;23.918;2023-04-30T05:49:34;95561.69;;;14.22;79.63
41222;BME280;26952;42.884;23.918;2023-04-30T05:52:00;95568.31;;;14.46;73.96
41222;BME280;26952;42.884;23.918;2023-04-30T05:54:28;95590.22;;;15.26;73.09
41222;BME280;26952;42.884;23.918;2023-04-30T05:56:53;95597.22;;;15.20;70.71
41222;BME280;26952;42.884;23.918;2023-04-30T05:59:18;95525.50;;;14.86;72.04
41222;BME280;26952;42.884;23.918;2023-04-30T06:01:44;95567.31;;;15.05;67.20
41222;BME280;26952;42.884;23.918;2023-04-30T06:04:10;95579.38;;;15.14;65.96
41222;BME280;26952;42.884;23.918;2023-04-30T06:06:35;95583.25;;;15.45;66.53
41222;BME280;26952;42.884;23.918;2023-04-30T06:09:01;95586.88;;;15.70;66.53
41222;BME280;26952;42.884;23.918;2023-04-30T06:11:26;95583.63;;;15.55;67.75
41222;BME280;26952;42.884;23.918;2023-04-30T06:13:52;95581.78;;;15.62;69.77
41222;BME280;26952;42.884;23.918;2023-04-30T06:16:17;95579.13;;;15.36;64.45
41222;BME280;26952;42.884;23.918;2023-04-30T06:18:44;95584.13;;;14.86;67.65
41222;BME280;26952;42.884;23.918;2023-04-30T06:21:10;95575.91;;;14.55;67.52
41222;BME280;26952;42.884;23.918;2023-04-30T06:23:35;95586.97;;;14.91;65.63
41222;BME280;26952;42.884;23.918;2023-04-30T06:26:02;95565.28;;;14.81;65.55
41222;BME280;26952;42.884;23.918;2023-04-30T06:28:27;95589.84;;;15.09;67.19
41222;BME280;26952;42.884;23.918;2023-04-30T06:30:53;95579.16;;;15.22;67.05
41222;BME280;26952;42.884;23.918;2023-04-30T06:33:19;95568.69;;;15.41;70.13
41222;BME280;26952;42.884;23.918;2023-04-30T06:35:45;95569.03;;;15.70;68.70
41222;BME280;26952;42.884;23.918;2023-04-30T06:38:12;95545.38;;;15.80;67.04
41222;BME280;26952;42.884;23.918;2023-04-30T06:40:37;95584.34;;;16.32;68.42
41222;BME280;26952;42.884;23.918;2023-04-30T06:43:03;95562.50;;;16.04;67.24
41222;BME280;26952;42.884;23.918;2023-04-30T06:45:28;95571.69;;;15.70;68.00
41222;BME280;26952;42.884;23.918;2023-04-30T06:47:53;95573.69;;;15.81;66.02
41222;BME280;26952;42.884;23.918;2023-04-30T06:50:19;95602.66;;;15.78;65.62
41222;BME280;26952;42.884;23.918;2023-04-30T06:52:46;95534.03;;;15.41;66.10
41222;BME280;26952;42.884;23.918;2023-04-30T06:55:11;95607.53;;;15.87;66.69
41222;BME280;26952;42.884;23.918;2023-04-30T06:57:37;95574.63;;;15.56;65.79
41222;BME280;26952;42.884;23.918;2023-04-30T07:00:04;95566.84;;;15.35;70.67
41222;BME280;26952;42.884;23.918;2023-04-30T07:02:30;95597.56;;;15.63;68.80
41222;BME280;26952;42.884;23.918;2023-04-30T07:04:56;95589.44;;;15.96;69.38
41222;BME280;26952;42.884;23.918;2023-04-30T07:07:22;95605.16;;;16.17;66.36
41222;BME280;26952;42.884;23.918;2023-04-30T07:09:47;95573.28;;;15.84;69.19
41222;BME280;26952;42.884;23.918;2023-04-30T07:12:13;95607.72;;;15.99;66.26
41222;BME280;26952;42.884;23.918;2023-04-30T07:14:38;95606.41;;;16.21;64.55
41222;BME280;26952;42.884;23.918;2023-04-30T07:17:04;95603.59;;;16.47;65.79
41222;BME280;26952;42.884;23.918;2023-04-30T07:19:29;95602.78;;;16.78;62.61
41222;BME280;26952;42.884;23.918;2023-04-30T07:21:54;95615.31;;;16.77;65.99
41222;BME280;26952;42.884;23.918;2023-04-30T07:24:20;95614.94;;;16.36;69.90
41222;BME280;26952;42.884;23.918;2023-04-30T07:26:45;95585.78;;;16.28;69.94
41222;BME280;26952;42.884;23.918;2023-04-30T07:29:11;95588.72;;;16.20;73.53
41222;BME280;26952;42.884;23.918;2023-04-30T07:31:36;95611.97;;;15.56;80.04
41222;BME280;26952;42.884;23.918;2023-04-30T07:34:02;95611.59;;;15.06;85.75
41222;BME280;26952;42.884;23.918;2023-04-30T07:36:27;95607.06;;;15.26;85.81
41222;BME280;26952;42.884;23.918;2023-04-30T07:38:52;95617.72;;;15.53;84.46
41222;BME280;26952;42.884;23.918;2023-04-30T07:41:18;95610.72;;;15.52;84.22
41222;BME280;26952;42.884;23.918;2023-04-30T07:43:43;95609.09;;;15.51;86.31
41222;BME280;26952;42.884;23.918;2023-04-30T07:46:09;95600.91;;;15.13;85.02
41222;BME280;26952;42.884;23.918;2023-04-30T07:48:34;95614.25;;;15.26;85.46
41222;BME280;26952;42.884;23.918;2023-04-30T07:51:00;95594.38;;;15.09;86.24
41222;BME280;26952;42.884;23.918;2023-04-30T07:53:26;95614.41;;;15.57;87.84
41222;BME280;26952;42.884;23.918;2023-04-30T07:55:51;95638.59;;;15.82;82.51
41222;BME280;26952;42.884;23.918;2023-04-30T07:58:16;95630.56;;;15.88;80.91
41222;BME280;26952;42.884;23.918;2023-04-30T08:00:42;95632.59;;;16.43;78.58
41222;BME280;26952;42.884;23.918;2023-04-30T08:03:07;95626.00;;;16.46;78.79
41222;BME280;26952;42.884;23.918;2023-04-30T08:05:33;95604.03;;;16.75;74.60
41222;BME280;26952;42.884;23.918;2023-04-30T08:07:58;95642.19;;;17.38;73.30
41222;BME280;26952;42.884;23.918;2023-04-30T08:10:23;95577.91;;;17.44;69.98
41222;BME280;26952;42.884;23.918;2023-04-30T08:12:50;95632.63;;;18.27;62.67
41222;BME280;26952;42.884;23.918;2023-04-30T08:15:17;95615.94;;;18.43;61.87
41222;BME280;26952;42.884;23.918;2023-04-30T08:17:47;95635.03;;;18.65;56.77
41222;BME280;26952;42.884;23.918;2023-04-30T08:20:12;95615.22;;;19.07;58.20
41222;BME280;26952;42.884;23.918;2023-04-30T08:22:38;95613.88;;;19.51;48.30
41222;BME280;26952;42.884;23.918;2023-04-30T08:25:04;95619.13;;;19.80;46.59
41222;BME280;26952;42.884;23.918;2023-04-30T08:27:30;95601.22;;;18.64;58.67
41222;BME280;26952;42.884;23.918;2023-04-30T08:29:56;95611.75;;;17.81;55.24
41222;BME280;26952;42.884;23.918;2023-04-30T08:32:21;95613.22;;;17.77;52.16
41222;BME280;26952;42.884;23.918;2023-04-30T08:34:47;95602.50;;;17.95;51.76
41222;BME280;26952;42.884;23.918;2023-04-30T08:37:12;95597.13;;;18.61;49.87
41222;BME280;26952;42.884;23.918;2023-04-30T08:39:37;95598.50;;;18.82;46.62
41222;BME280;26952;42.884;23.918;2023-04-30T08:42:07;95590.19;;;19.36;45.68
41222;BME280;26952;42.884;23.918;2023-04-30T08:44:33;95593.63;;;19.94;42.40
41222;BME280;26952;42.884;23.918;2023-04-30T08:47:00;95604.50;;;19.88;42.38
41222;BME280;26952;42.884;23.918;2023-04-30T08:49:26;95622.00;;;20.25;41.82
41222;BME280;26952;42.884;23.918;2023-04-30T08:51:52;95614.22;;;19.31;43.31
41222;BME280;26952;42.884;23.918;2023-04-30T08:54:18;95609.22;;;18.82;45.36
41222;BME280;26952;42.884;23.918;2023-04-30T08:56:44;95579.88;;;17.91;48.19
41222;BME280;26952;42.884;23.918;2023-04-30T08:59:11;95619.25;;;18.86;46.56
41222;BME280;26952;42.884;23.918;2023-04-30T09:01:36;95602.00;;;19.47;44.92
41222;BME280;26952;42.884;23.918;2023-04-30T09:04:03;95614.38;;;20.33;42.20
41222;BME280;26952;42.884;23.918;2023-04-30T09:06:29;95589.69;;;20.93;43.45
41222;BME280;26952;42.884;23.918;2023-04-30T09:08:56;95590.28;;;21.28;41.74
41222;BME280;26952;42.884;23.918;2023-04-30T09:11:26;95607.91;;;21.19;42.21
41222;BME280;26952;42.884;23.918;2023-04-30T09:13:55;95586.72;;;20.21;42.58
41222;BME280;26952;42.884;23.918;2023-04-30T09:16:22;95606.22;;;20.28;42.38
41222;BME280;26952;42.884;23.918;2023-04-30T09:18:48;95587.41;;;20.05;44.05
41222;BME280;26952;42.884;23.918;2023-04-30T09:21:13;95599.72;;;20.41;43.24
41222;BME280;26952;42.884;23.918;2023-04-30T09:23:56;95593.69;;;20.62;42.46
41222;BME280;26952;42.884;23.918;2023-04-30T09:26:29;95591.19;;;21.00;42.42
41222;BME280;26952;42.884;23.918;2023-04-30T09:28:56;95577.22;;;22.08;43.78
41222;BME280;26952;42.884;23.918;2023-04-30T09:31:21;95572.69;;;21.04;44.61
41222;BME280;26952;42.884;23.918;2023-04-30T09:33:47;95584.78;;;22.11;42.94
41222;BME280;26952;42.884;23.918;2023-04-30T09:36:12;95569.31;;;21.13;41.05
41222;BME280;26952;42.884;23.918;2023-04-30T09:38:38;95576.53;;;20.23;44.53
41222;BME280;26952;42.884;23.918;2023-04-30T09:41:03;95567.56;;;20.46;45.07
41222;BME280;26952;42.884;23.918;2023-04-30T09:43:29;95580.34;;;19.76;43.02
41222;BME280;26952;42.884;23.918;2023-04-30T09:45:57;95584.31;;;20.36;43.64
41222;BME280;26952;42.884;23.918;2023-04-30T09:48:24;95576.50;;;21.57;45.41
41222;BME280;26952;42.884;23.918;2023-04-30T09:50:52;95549.75;;;22.11;39.42
41222;BME280;26952;42.884;23.918;2023-04-30T09:53:18;95568.03;;;22.30;38.78
41222;BME280;26952;42.884;23.918;2023-04-30T09:55:49;95570.81;;;20.76;41.81
41222;BME280;26952;42.884;23.918;2023-04-30T09:58:16;95551.66;;;20.44;41.42
41222;BME280;26952;42.884;23.918;2023-04-30T10:00:44;95563.00;;;20.75;41.91
41222;BME280;26952;42.884;23.918;2023-04-30T10:03:11;95541.81;;;20.78;42.88
41222;BME280;26952;42.884;23.918;2023-04-30T10:05:41;95549.88;;;20.95;43.23
41222;BME280;26952;42.884;23.918;2023-04-30T10:08:25;95525.97;;;20.82;40.52
41222;BME280;26952;42.884;23.918;2023-04-30T10:10:57;95559.97;;;20.99;41.00
41222;BME280;26952;42.884;23.918;2023-04-30T10:13:28;95527.50;;;20.16;42.29
41222;BME280;26952;42.884;23.918;2023-04-30T10:15:58;95550.13;;;20.20;43.32
41222;BME280;26952;42.884;23.918;2023-04-30T10:18:34;95551.53;;;19.49;44.89
41222;BME280;26952;42.884;23.918;2023-04-30T10:21:02;95551.88;;;19.06;46.31
41222;BME280;26952;42.884;23.918;2023-04-30T10:23:35;95534.00;;;18.88;46.97
41222;BME280;26952;42.884;23.918;2023-04-30T10:26:01;95539.38;;;19.00;44.25
41222;BME280;26952;42.884;23.918;2023-04-30T10:28:28;95569.06;;;19.40;47.32
41222;BME280;26952;42.884;23.918;2023-04-30T10:30:55;95532.94;;;19.70;49.35
41222;BME280;26952;42.884;23.918;2023-04-30T10:33:31;95560.50;;;20.56;47.58
41222;BME280;26952;42.884;23.918;2023-04-30T10:36:05;95558.06;;;21.16;43.77
41222;BME280;26952;42.884;23.918;2023-04-30T10:38:33;95534.25;;;21.63;45.31
41222;BME280;26952;42.884;23.918;2023-04-30T10:40:59;95513.50;;;21.80;40.29
41222;BME280;26952;42.884;23.918;2023-04-30T10:43:26;95538.69;;;20.70;42.64
41222;BME280;26952;42.884;23.918;2023-04-30T10:45:56;95554.22;;;20.23;43.23
41222;BME280;26952;42.884;23.918;2023-04-30T10:48:23;95524.25;;;19.52;45.78
41222;BME280;26952;42.884;23.918;2023-04-30T10:50:55;95528.19;;;19.61;44.44
41222;BME280;26952;42.884;23.918;2023-04-30T10:53:21;95546.72;;;19.85;45.04
41222;BME280;26952;42.884;23.918;2023-04-30T10:55:58;95550.75;;;19.48;44.70
41222;BME280;26952;42.884;23.918;2023-04-30T10:58:35;95529.75;;;18.69;47.14
41222;BME280;26952;42.884;23.918;2023-04-30T11:01:13;95555.97;;;19.20;48.48
41222;BME280;26952;42.884;23.918;2023-04-30T11:04:08;95553.09;;;18.69;48.18
41222;BME280;26952;42.884;23.918;2023-04-30T11:09:39;95548.41;;;18.53;49.42
41222;BME280;26952;42.884;23.918;2023-04-30T11:12:13;95531.22;;;18.95;53.51
41222;BME280;26952;42.884;23.918;2023-04-30T11:14:41;95535.91;;;19.46;50.40
41222;BME280;26952;42.884;23.918;2023-04-30T11:17:08;95548.72;;;19.67;49.37
41222;BME280;26952;42.884;23.918;2023-04-30T11:19:34;95489.72;;;19.72;48.52
41222;BME280;26952;42.884;23.918;2023-04-30T11:24:50;95546.28;;;20.73;41.84
41222;BME280;26952;42.884;23.918;2023-04-30T11:27:26;95527.28;;;20.96;40.93
41222;BME280;26952;42.884;23.918;2023-04-30T11:29:53;95512.19;;;21.44;42.15
41222;BME280;26952;42.884;23.918;2023-04-30T11:32:20;95535.09;;;21.47;44.09
41222;BME280;26952;42.884;23.918;2023-04-30T11:34:46;95493.94;;;21.30;43.10
41222;BME280;26952;42.884;23.918;2023-04-30T11:37:18;95528.59;;;21.43;43.94
41222;BME280;26952;42.884;23.918;2023-04-30T11:39:43;95530.72;;;21.41;44.23
41222;BME280;26952;42.884;23.918;2023-04-30T11:42:09;95509.53;;;21.11;44.80
41222;BME280;26952;42.884;23.918;2023-04-30T11:44:40;95523.06;;;21.16;46.06
41222;BME280;26952;42.884;23.918;2023-04-30T11:47:05;95496.13;;;20.83;45.76
41222;BME280;26952;42.884;23.918;2023-04-30T11:49:31;95527.78;;;20.93;46.77
41222;BME280;26952;42.884;23.918;2023-04-30T11:51:56;95527.66;;;20.99;47.10
41222;BME280;26952;42.884;23.918;2023-04-30T11:54:21;95530.72;;;21.24;45.67
41222;BME280;26952;42.884;23.918;2023-04-30T11:56:47;95508.44;;;20.96;45.16
41222;BME280;26952;42.884;23.918;2023-04-30T11:59:14;95543.09;;;20.76;42.75
41222;BME280;26952;42.884;23.918;2023-04-30T12:01:40;95515.66;;;20.62;44.79
41222;BME280;26952;42.884;23.918;2023-04-30T12:04:06;95490.34;;;20.30;45.91
41222;BME280;26952;42.884;23.918;2023-04-30T12:06:32;95496.72;;;20.24;49.72
41222;BME280;26952;42.884;23.918;2023-04-30T12:08:59;95525.75;;;20.38;50.60
41222;BME280;26952;42.884;23.918;2023-04-30T12:11:37;95530.09;;;20.56;48.16
41222;BME280;26952;42.884;23.918;2023-04-30T12:14:07;95519.28;;;20.84;48.42
41222;BME280;26952;42.884;23.918;2023-04-30T12:16:43;95508.34;;;20.74;48.42
41222;BME280;26952;42.884;23.918;2023-04-30T12:19:13;95505.00;;;20.50;49.12
41222;BME280;26952;42.884;23.918;2023-04-30T12:21:40;95509.50;;;20.95;47.39
41222;BME280;26952;42.884;23.918;2023-04-30T12:24:06;95509.25;;;21.67;45.59
41222;BME280;26952;42.884;23.918;2023-04-30T12:26:39;95535.41;;;21.67;44.25
41222;BME280;26952;42.884;23.918;2023-04-30T12:29:10;95529.53;;;21.53;46.40
41222;BME280;26952;42.884;23.918;2023-04-30T12:31:37;95518.78;;;20.71;56.65
41222;BME280;26952;42.884;23.918;2023-04-30T12:34:07;95539.81;;;20.57;56.24
41222;BME280;26952;42.884;23.918;2023-04-30T12:36:32;95541.38;;;19.16;56.80
41222;BME280;26952;42.884;23.918;2023-04-30T12:39:13;95536.13;;;18.27;69.18
41222;BME280;26952;42.884;23.918;2023-04-30T12:41:47;95520.66;;;17.99;89.88
41222;BME280;26952;42.884;23.918;2023-04-30T12:44:24;95462.50;;;17.88;100.00
41222;BME280;26952;42.884;23.918;2023-04-30T12:46:51;95500.97;;;18.65;100.00
41222;BME280;26952;42.884;23.918;2023-04-30T12:49:28;95473.78;;;18.61;100.00
41222;BME280;26952;42.884;23.918;2023-04-30T12:52:21;95502.59;;;18.77;97.58
41222;BME280;26952;42.884;23.918;2023-04-30T12:54:43;95521.75;;;18.81;96.55
41222;BME280;26952;42.884;23.918;2023-04-30T12:57:10;95501.88;;;18.59;98.49
41222;BME280;26952;42.884;23.918;2023-04-30T12:59:55;95500.59;;;18.61;100.00
41222;BME280;26952;42.884;23.918;2023-04-30T13:02:23;95502.63;;;18.89;100.00
41222;BME280;26952;42.884;23.918;2023-04-30T13:04:49;95491.41;;;18.92;100.00